Time;durP1;ratioP1;P1;durP2;ratioP2;P2;SDS_P1;SDS_P2;PMS_P1;PMS_P2;Temp;Humidity;BMP_temperature;BMP_pressure;BME280_temperature;BME280_humidity;BME280_pressure;Samples;Min_cycle;Max_cycle;Signal;HPM_P1;HPM_P2
2022/04/07 00:01:16;;;;;;;6.47;6.03;;;;;;;;;;6151137;28;20317;-70
2022/04/07 00:04:36;;;;;;;6.37;5.87;;;;;;;;;;6149481;28;20365;-69
2022/04/07 00:07:57;;;;;;;7.07;6.50;;;;;;;;;;6152053;28;20227;-69
2022/04/07 00:11:18;;;;;;;8.60;7.70;;;;;;;;;;6151270;28;20234;-69
2022/04/07 00:14:40;;;;;;;6.47;5.97;;;;;;;;;;6153854;28;20516;-70
2022/04/07 00:18:01;;;;;;;6.93;6.43;;;;;;;;;;6136704;28;20242;-69
2022/04/07 00:21:35;;;;;;;6.03;5.53;;;;;;;;;;6150930;28;20237;-70
2022/04/07 00:24:56;;;;;;;7.03;6.30;;;;;;;;;;6147719;28;20257;-70
2022/04/07 00:28:17;;;;;;;6.20;5.70;;;;;;;;;;6150910;28;20223;-69
2022/04/07 00:31:42;;;;;;;6.07;5.57;;;;;;;;;;6149238;28;20624;-69
2022/04/07 00:35:05;;;;;;;5.67;5.17;;;;;;;;;;6148957;28;20276;-70
2022/04/07 00:38:25;;;;;;;7.27;6.53;;;;;;;;;;6150132;28;20231;-70
2022/04/07 00:41:46;;;;;;;6.13;5.60;;;;;;;;;;6147743;28;20632;-68
2022/04/07 00:45:08;;;;;;;6.40;6.00;;;;;;;;;;6152140;28;20261;-70
2022/04/07 00:48:35;;;;;;;6.63;6.13;;;;;;;;;;6154031;28;20223;-69
2022/04/07 00:51:56;;;;;;;7.30;6.80;;;;;;;;;;6154391;28;20334;-69
2022/04/07 00:55:17;;;;;;;7.20;6.60;;;;;;;;;;6154143;28;20245;-70
2022/04/07 00:58:38;;;;;;;6.50;6.00;;;;;;;;;;6152203;28;20238;-70
2022/04/07 01:01:58;;;;;;;7.27;6.70;;;;;;;;;;6151970;28;20238;-69
2022/04/07 01:05:23;;;;;;;7.23;6.73;;;;;;;;;;6152603;28;20234;-69
2022/04/07 01:08:44;;;;;;;6.83;6.30;;;;;;;;;;6153494;28;20293;-70
2022/04/07 01:12:05;;;;;;;7.83;7.13;;;;;;;;;;6156547;28;20230;-70
2022/04/07 01:15:26;;;;;;;7.87;7.27;;;;;;;;;;6153142;28;20230;-70
2022/04/07 01:18:48;;;;;;;6.87;6.37;;;;;;;;;;6152174;28;20227;-70
2022/04/07 01:22:10;;;;;;;9.67;8.77;;;;;;;;;;6155400;28;20238;-70
2022/04/07 01:25:32;;;;;;;8.67;8.07;;;;;;;;;;6153516;28;20250;-70
2022/04/07 01:28:53;;;;;;;9.30;8.40;;;;;;;;;;6155334;28;20880;-71
2022/04/07 01:32:17;;;;;;;8.23;7.53;;;;;;;;;;6152494;28;20611;-70
2022/04/07 01:35:38;;;;;;;10.10;8.03;;;;;;;;;;6152674;28;20247;-70
2022/04/07 01:38:59;;;;;;;7.70;7.10;;;;;;;;;;6152158;28;20234;-69
2022/04/07 01:42:21;;;;;;;7.70;7.20;;;;;;;;;;6153586;28;20520;-71
2022/04/07 01:45:43;;;;;;;7.30;6.60;;;;;;;;;;6152124;28;20322;-70
2022/04/07 01:49:04;;;;;;;6.73;6.23;;;;;;;;;;6151341;28;20230;-70
2022/04/07 01:52:25;;;;;;;6.03;5.53;;;;;;;;;;6156313;28;20238;-70
2022/04/07 01:55:47;;;;;;;6.93;6.43;;;;;;;;;;6152005;28;20231;-69
2022/04/07 01:59:10;;;;;;;6.10;5.67;;;;;;;;;;6145522;28;20235;-69
2022/04/07 02:02:31;;;;;;;7.10;6.53;;;;;;;;;;6150362;28;20613;-70
2022/04/07 02:05:52;;;;;;;6.37;5.87;;;;;;;;;;6154553;28;20242;-70
2022/04/07 02:09:12;;;;;;;6.53;5.93;;;;;;;;;;6154783;28;20227;-69
2022/04/07 02:12:36;;;;;;;6.83;6.30;;;;;;;;;;6150056;28;20266;-71
2022/04/07 02:15:57;;;;;;;6.90;6.30;;;;;;;;;;6150973;28;20234;-71
2022/04/07 02:19:18;;;;;;;6.50;6.00;;;;;;;;;;6152214;28;20231;-70
2022/04/07 02:22:39;;;;;;;7.23;6.67;;;;;;;;;;6152540;28;20234;-69
2022/04/07 02:25:59;;;;;;;6.00;5.60;;;;;;;;;;6148120;28;20580;-70
2022/04/07 02:29:20;;;;;;;7.83;7.13;;;;;;;;;;6155386;28;20234;-70
2022/04/07 02:32:43;;;;;;;6.73;6.13;;;;;;;;;;6152187;28;20247;-70
2022/04/07 02:36:05;;;;;;;6.83;6.23;;;;;;;;;;6155242;28;20278;-69
2022/04/07 02:39:26;;;;;;;6.80;6.20;;;;;;;;;;6151406;28;22806;-70
2022/04/07 02:42:47;;;;;;;6.10;5.50;;;;;;;;;;6148867;28;20243;-70
2022/04/07 02:46:08;;;;;;;6.50;6.00;;;;;;;;;;6147438;28;20230;-70
2022/04/07 02:49:30;;;;;;;7.00;6.30;;;;;;;;;;6151481;28;20254;-68
2022/04/07 02:52:51;;;;;;;6.97;6.27;;;;;;;;;;6149594;28;20262;-69
2022/04/07 02:56:12;;;;;;;12.80;7.90;;;;;;;;;;6149321;28;20254;-70
2022/04/07 02:59:33;;;;;;;8.30;7.50;;;;;;;;;;6154252;28;20294;-70
2022/04/07 03:02:54;;;;;;;9.50;8.50;;;;;;;;;;6149688;28;20234;-70
2022/04/07 03:06:16;;;;;;;9.67;8.67;;;;;;;;;;6140826;28;20608;-70
2022/04/07 03:09:37;;;;;;;8.70;7.83;;;;;;;;;;6153760;28;20242;-70
2022/04/07 03:12:58;;;;;;;7.53;6.93;;;;;;;;;;6144747;28;20246;-71
2022/04/07 03:16:19;;;;;;;9.73;8.97;;;;;;;;;;6150864;28;20612;-70
2022/04/07 03:19:40;;;;;;;10.00;9.07;;;;;;;;;;6149996;28;20242;-71
2022/04/07 03:23:02;;;;;;;10.07;9.13;;;;;;;;;;6147795;28;20318;-71
2022/04/07 03:26:23;;;;;;;11.03;10.13;;;;;;;;;;6124761;28;20321;-71
2022/04/07 03:29:44;;;;;;;10.87;9.97;;;;;;;;;;6149153;28;20227;-70
2022/04/07 03:33:06;;;;;;;10.73;9.83;;;;;;;;;;6145825;28;20254;-70
2022/04/07 03:36:26;;;;;;;10.27;9.37;;;;;;;;;;6148625;28;20230;-71
2022/04/07 03:39:49;;;;;;;8.63;8.03;;;;;;;;;;6150627;28;20262;-70
2022/04/07 03:43:10;;;;;;;9.63;8.93;;;;;;;;;;6151828;28;20242;-70
2022/04/07 03:46:31;;;;;;;9.23;8.53;;;;;;;;;;6148346;28;20246;-70
2022/04/07 03:49:52;;;;;;;8.30;7.70;;;;;;;;;;6152623;28;20243;-69
2022/04/07 03:53:13;;;;;;;8.90;8.00;;;;;;;;;;6150367;28;20222;-70
2022/04/07 03:56:35;;;;;;;7.33;6.57;;;;;;;;;;6145227;28;20231;-70
2022/04/07 03:59:56;;;;;;;7.27;6.67;;;;;;;;;;6149436;28;20230;-70
2022/04/07 04:03:17;;;;;;;5.50;5.00;;;;;;;;;;6152012;28;20226;-69
2022/04/07 04:06:37;;;;;;;6.20;5.77;;;;;;;;;;6155033;28;20230;-69
2022/04/07 04:09:58;;;;;;;5.70;5.20;;;;;;;;;;6150089;28;20226;-70
2022/04/07 04:13:20;;;;;;;5.37;4.87;;;;;;;;;;6145309;28;20277;-70
2022/04/07 04:16:41;;;;;;;4.87;4.57;;;;;;;;;;6146772;28;20779;-70
2022/04/07 04:20:04;;;;;;;6.13;5.63;;;;;;;;;;6149647;28;20696;-71
2022/04/07 04:23:25;;;;;;;5.53;5.07;;;;;;;;;;6150860;28;20325;-69
2022/04/07 04:26:46;;;;;;;6.30;5.67;;;;;;;;;;6155155;28;20230;-70
2022/04/07 04:30:11;;;;;;;5.43;4.97;;;;;;;;;;6151618;28;20227;-70
2022/04/07 04:33:31;;;;;;;5.53;4.80;;;;;;;;;;6155023;28;20226;-71
2022/04/07 04:36:52;;;;;;;5.27;4.77;;;;;;;;;;6157297;28;20235;-71
2022/04/07 04:40:13;;;;;;;5.23;4.90;;;;;;;;;;6148021;28;20227;-70
2022/04/07 04:43:34;;;;;;;5.33;4.70;;;;;;;;;;6149053;28;20349;-70
2022/04/07 04:46:57;;;;;;;5.30;4.90;;;;;;;;;;6125717;28;21862;-70
2022/04/07 04:50:17;;;;;;;5.57;5.17;;;;;;;;;;6142349;28;20218;-70
2022/04/07 04:53:38;;;;;;;5.97;5.50;;;;;;;;;;6147494;28;20510;-70
2022/04/07 04:56:59;;;;;;;5.60;5.20;;;;;;;;;;6145694;28;20222;-71
2022/04/07 05:00:20;;;;;;;5.67;5.27;;;;;;;;;;6142413;28;20265;-72
2022/04/07 05:03:42;;;;;;;7.07;6.43;;;;;;;;;;6147097;28;20613;-71
2022/04/07 05:07:04;;;;;;;6.07;5.57;;;;;;;;;;6143928;28;20223;-70
2022/04/07 05:10:25;;;;;;;6.17;5.57;;;;;;;;;;6140141;28;20227;-70
2022/04/07 05:13:47;;;;;;;6.80;6.30;;;;;;;;;;6140481;28;20328;-70
2022/04/07 05:17:08;;;;;;;6.67;6.07;;;;;;;;;;6141088;28;20603;-71
2022/04/07 05:20:30;;;;;;;7.37;6.47;;;;;;;;;;6149027;28;20223;-71
2022/04/07 05:23:51;;;;;;;6.63;6.03;;;;;;;;;;6151678;28;20483;-70
2022/04/07 05:27:12;;;;;;;4.93;4.63;;;;;;;;;;6150491;28;20226;-70
2022/04/07 05:30:33;;;;;;;5.40;5.00;;;;;;;;;;6145665;28;20262;-70
2022/04/07 05:33:54;;;;;;;4.77;4.17;;;;;;;;;;6123671;28;20227;-70
2022/04/07 05:37:17;;;;;;;4.30;3.93;;;;;;;;;;6151646;28;20574;-70
2022/04/07 05:40:38;;;;;;;4.90;3.60;;;;;;;;;;6153865;28;20828;-71
2022/04/07 05:43:58;;;;;;;4.53;3.73;;;;;;;;;;6150963;28;21862;-70
2022/04/07 05:47:19;;;;;;;3.60;3.30;;;;;;;;;;6152530;28;20222;-69
2022/04/07 05:50:40;;;;;;;5.67;4.43;;;;;;;;;;6157383;28;20884;-70
2022/04/07 05:54:02;;;;;;;5.30;4.00;;;;;;;;;;6148974;28;22520;-70
2022/04/07 05:57:26;;;;;;;4.63;4.17;;;;;;;;;;6140549;28;20235;-72
2022/04/07 06:00:47;;;;;;;4.97;3.60;;;;;;;;;;6145332;28;20238;-71
2022/04/07 06:04:08;;;;;;;4.33;4.03;;;;;;;;;;6138282;28;20234;-69
2022/04/07 06:07:29;;;;;;;5.13;4.63;;;;;;;;;;6147964;28;20632;-71
2022/04/07 06:10:51;;;;;;;4.53;4.10;;;;;;;;;;6148094;28;20251;-71
2022/04/07 06:14:12;;;;;;;5.47;4.23;;;;;;;;;;6151174;28;20525;-71
2022/04/07 06:17:34;;;;;;;4.97;4.50;;;;;;;;;;6149542;28;20290;-71
2022/04/07 06:20:55;;;;;;;5.57;4.53;;;;;;;;;;6154368;28;20228;-70
2022/04/07 06:24:15;;;;;;;5.60;5.10;;;;;;;;;;6148724;28;20262;-70
2022/04/07 06:27:38;;;;;;;5.50;5.03;;;;;;;;;;6142780;28;20239;-70
2022/04/07 06:30:59;;;;;;;7.40;5.07;;;;;;;;;;6140139;28;20321;-71
2022/04/07 06:34:20;;;;;;;6.30;5.77;;;;;;;;;;6146649;28;20819;-70
2022/04/07 06:37:45;;;;;;;6.07;5.57;;;;;;;;;;6152822;28;20234;-70
2022/04/07 06:41:07;;;;;;;6.27;5.60;;;;;;;;;;6154236;28;20278;-70
2022/04/07 06:44:29;;;;;;;6.80;6.10;;;;;;;;;;6156751;28;20260;-71
2022/04/07 06:47:50;;;;;;;6.43;5.83;;;;;;;;;;6148568;28;20533;-70
2022/04/07 06:51:11;;;;;;;6.63;5.40;;;;;;;;;;6148841;28;20238;-71
2022/04/07 06:54:32;;;;;;;10.80;6.40;;;;;;;;;;6144278;28;20230;-71
2022/04/07 06:57:54;;;;;;;6.13;5.50;;;;;;;;;;6151663;28;20513;-70
2022/04/07 07:01:16;;;;;;;6.43;4.80;;;;;;;;;;6151715;28;20255;-71
2022/04/07 07:04:37;;;;;;;6.97;5.00;;;;;;;;;;6150083;28;20234;-70
2022/04/07 07:07:58;;;;;;;4.70;4.37;;;;;;;;;;6124450;28;20258;-70
2022/04/07 07:11:18;;;;;;;9.23;3.93;;;;;;;;;;6155080;28;20258;-71
2022/04/07 07:14:39;;;;;;;5.83;4.27;;;;;;;;;;6153535;28;20222;-71
2022/04/07 07:18:02;;;;;;;6.20;4.10;;;;;;;;;;6150760;28;20234;-70
2022/04/07 07:21:23;;;;;;;4.73;4.20;;;;;;;;;;6144786;28;20644;-70
2022/04/07 07:24:43;;;;;;;5.60;3.53;;;;;;;;;;6143726;28;20628;-70
2022/04/07 07:28:05;;;;;;;8.73;3.97;;;;;;;;;;6150067;28;20235;-70
2022/04/07 07:31:26;;;;;;;5.60;3.73;;;;;;;;;;6146874;28;20218;-70
2022/04/07 07:34:49;;;;;;;5.17;3.63;;;;;;;;;;6155256;28;20651;-70
2022/04/07 07:38:10;;;;;;;4.80;4.03;;;;;;;;;;6156659;28;20251;-70
2022/04/07 07:41:31;;;;;;;5.07;3.83;;;;;;;;;;6156419;28;20242;-70
2022/04/07 07:44:52;;;;;;;3.33;3.10;;;;;;;;;;6154318;28;20234;-71
2022/04/07 07:48:13;;;;;;;3.30;3.00;;;;;;;;;;6150679;28;20254;-72
2022/04/07 07:51:37;;;;;;;7.57;2.87;;;;;;;;;;6153196;28;20231;-70
2022/04/07 07:54:59;;;;;;;5.13;3.20;;;;;;;;;;6158488;28;20230;-69
2022/04/07 07:58:19;;;;;;;5.17;3.30;;;;;;;;;;6161588;28;20262;-72
2022/04/07 08:01:43;;;;;;;6.87;3.70;;;;;;;;;;6157160;28;20227;-71
2022/04/07 08:05:05;;;;;;;5.60;3.77;;;;;;;;;;6155051;28;20229;-71
2022/04/07 08:08:27;;;;;;;7.83;4.10;;;;;;;;;;6152827;28;20245;-71
2022/04/07 08:11:48;;;;;;;6.33;3.40;;;;;;;;;;6146807;28;20234;-71
2022/04/07 08:15:10;;;;;;;6.70;3.77;;;;;;;;;;6150239;28;20321;-71
2022/04/07 08:18:32;;;;;;;5.33;3.87;;;;;;;;;;6153982;28;20239;-71
2022/04/07 08:21:52;;;;;;;9.13;4.37;;;;;;;;;;6150193;28;20234;-73
2022/04/07 08:25:16;;;;;;;5.27;3.97;;;;;;;;;;6157781;28;21029;-72
2022/04/07 08:28:36;;;;;;;7.97;4.30;;;;;;;;;;6153193;28;20231;-70
2022/04/07 08:31:57;;;;;;;6.00;3.60;;;;;;;;;;6150371;28;20234;-72
2022/04/07 08:35:18;;;;;;;6.30;4.13;;;;;;;;;;6154439;28;20230;-66
2022/04/07 08:38:39;;;;;;;5.23;3.13;;;;;;;;;;6152680;28;20246;-68
2022/04/07 08:42:01;;;;;;;4.30;3.60;;;;;;;;;;6151598;28;20242;-68
2022/04/07 08:45:23;;;;;;;4.80;2.87;;;;;;;;;;6145589;28;20230;-71
2022/04/07 08:48:45;;;;;;;4.53;3.40;;;;;;;;;;6141899;28;20237;-72
2022/04/07 08:52:08;;;;;;;7.03;3.63;;;;;;;;;;6153414;28;20592;-71
2022/04/07 08:55:28;;;;;;;5.80;3.87;;;;;;;;;;6154419;28;20325;-69
2022/04/07 08:58:51;;;;;;;3.90;3.30;;;;;;;;;;6152972;28;20242;-70
2022/04/07 09:02:13;;;;;;;3.60;2.80;;;;;;;;;;6155445;28;20223;-71
2022/04/07 09:05:33;;;;;;;2.20;1.50;;;;;;;;;;6157064;28;20830;-71
2022/04/07 09:08:54;;;;;;;2.00;1.10;;;;;;;;;;6147400;28;20234;-72
2022/04/07 09:12:24;;;;;;;3.00;1.40;;;;;;;;;;6152061;28;20239;-73
2022/04/07 09:15:48;;;;;;;1.43;0.90;;;;;;;;;;6151269;28;20338;-73
2022/04/07 09:19:09;;;;;;;1.00;1.00;;;;;;;;;;6150276;28;20226;-73
2022/04/07 09:22:31;;;;;;;1.30;1.20;;;;;;;;;;6148716;28;21130;-73
2022/04/07 09:25:51;;;;;;;1.57;1.47;;;;;;;;;;6153896;28;20243;-72
2022/04/07 09:29:14;;;;;;;2.97;1.00;;;;;;;;;;6155794;28;20540;-72
2022/04/07 09:32:41;;;;;;;1.53;1.00;;;;;;;;;;6153413;28;20258;-72
2022/04/07 09:36:05;;;;;;;0.80;0.77;;;;;;;;;;6158445;28;20230;-72
2022/04/07 09:39:26;;;;;;;2.20;1.20;;;;;;;;;;6149939;28;20246;-73
2022/04/07 09:42:57;;;;;;;1.90;1.27;;;;;;;;;;6148422;28;20242;-74
2022/04/07 09:46:20;;;;;;;1.60;0.97;;;;;;;;;;6148046;28;20833;-73
2022/04/07 09:49:42;;;;;;;1.03;0.80;;;;;;;;;;6151033;28;20616;-72
2022/04/07 09:53:04;;;;;;;2.90;0.90;;;;;;;;;;6145266;28;20332;-72
2022/04/07 09:56:29;;;;;;;1.33;1.00;;;;;;;;;;6156424;28;20609;-72
2022/04/07 09:59:50;;;;;;;1.83;1.73;;;;;;;;;;6153397;28;20231;-71
2022/04/07 10:03:11;;;;;;;1.17;1.07;;;;;;;;;;6159981;28;20532;-71
2022/04/07 10:06:34;;;;;;;1.17;0.70;;;;;;;;;;6144113;28;20231;-71
2022/04/07 10:09:55;;;;;;;0.73;0.70;;;;;;;;;;6162156;28;20563;-70
2022/04/07 10:13:16;;;;;;;1.20;0.83;;;;;;;;;;6150549;28;20234;-71
2022/04/07 10:16:37;;;;;;;1.50;1.00;;;;;;;;;;6152836;28;20234;-71
2022/04/07 10:20:00;;;;;;;1.20;1.00;;;;;;;;;;6152101;28;20518;-71
2022/04/07 10:23:30;;;;;;;1.43;0.97;;;;;;;;;;6157452;28;20230;-71
2022/04/07 10:26:51;;;;;;;1.87;1.30;;;;;;;;;;6152052;28;20235;-72
2022/04/07 10:30:14;;;;;;;1.70;1.40;;;;;;;;;;6154857;28;20226;-72
2022/04/07 10:33:40;;;;;;;2.60;1.90;;;;;;;;;;6152825;28;21820;-72
2022/04/07 10:37:04;;;;;;;1.37;0.90;;;;;;;;;;6155472;28;20763;-71
2022/04/07 10:40:40;;;;;;;0.70;0.70;;;;;;;;;;6158794;28;20611;-71
2022/04/07 10:44:12;;;;;;;2.93;1.50;;;;;;;;;;6157325;28;20546;-71
2022/04/07 10:47:33;;;;;;;1.63;1.03;;;;;;;;;;6154782;28;20238;-71
2022/04/07 10:50:56;;;;;;;2.03;1.60;;;;;;;;;;6158390;28;20270;-71
2022/04/07 10:54:17;;;;;;;1.00;0.90;;;;;;;;;;6153489;28;20239;-73
2022/04/07 10:58:12;;;;;;;1.77;1.20;;;;;;;;;;6139654;28;20253;-72
2022/04/07 11:01:52;;;;;;;2.23;1.50;;;;;;;;;;6156356;28;20245;-72
2022/04/07 11:05:24;;;;;;;1.67;0.83;;;;;;;;;;6151891;28;20329;-71
2022/04/07 11:08:45;;;;;;;1.97;1.20;;;;;;;;;;6158504;28;20313;-71
2022/04/07 11:12:09;;;;;;;1.60;1.17;;;;;;;;;;6156296;28;20238;-69
2022/04/07 11:15:45;;;;;;;1.17;0.90;;;;;;;;;;6135401;28;20627;-70
2022/04/07 11:19:16;;;;;;;3.17;1.17;;;;;;;;;;6156245;28;20561;-71
2022/04/07 11:22:48;;;;;;;3.73;1.50;;;;;;;;;;6153268;28;20227;-71
2022/04/07 11:26:10;;;;;;;3.57;2.53;;;;;;;;;;6144026;28;20234;-72
2022/04/07 11:29:33;;;;;;;1.30;1.00;;;;;;;;;;6152037;28;20242;-72
2022/04/07 11:33:26;;;;;;;1.77;1.40;;;;;;;;;;6152376;28;20504;-72
2022/04/07 11:36:49;;;;;;;6.23;3.13;;;;;;;;;;6160835;28;20321;-73
2022/04/07 11:40:11;;;;;;;1.40;1.27;;;;;;;;;;6156087;28;20597;-73
2022/04/07 11:43:33;;;;;;;2.80;1.63;;;;;;;;;;6155613;28;20230;-75
2022/04/07 11:46:54;;;;;;;2.17;1.23;;;;;;;;;;6156570;28;20222;-72
2022/04/07 11:50:16;;;;;;;2.97;1.63;;;;;;;;;;6152745;28;20249;-73
2022/04/07 11:53:38;;;;;;;0.83;0.80;;;;;;;;;;6157130;28;20609;-74
2022/04/07 11:57:00;;;;;;;4.13;1.20;;;;;;;;;;6157558;28;20227;-72
2022/04/07 12:00:20;;;;;;;2.17;1.07;;;;;;;;;;6154330;28;20579;-73
2022/04/07 12:03:41;;;;;;;1.83;1.20;;;;;;;;;;6161076;28;20272;-72
2022/04/07 12:07:07;;;;;;;2.30;1.27;;;;;;;;;;6156237;28;20277;-71
2022/04/07 12:10:27;;;;;;;1.70;1.23;;;;;;;;;;6155575;28;20235;-72
2022/04/07 12:13:50;;;;;;;3.17;1.90;;;;;;;;;;6154489;28;20271;-72
2022/04/07 12:17:11;;;;;;;3.93;1.40;;;;;;;;;;6155720;28;20242;-72
2022/04/07 12:20:33;;;;;;;2.07;1.10;;;;;;;;;;6160387;28;20360;-72
2022/04/07 12:24:09;;;;;;;2.93;1.30;;;;;;;;;;6155414;28;20623;-70
2022/04/07 12:27:32;;;;;;;1.93;1.20;;;;;;;;;;6158529;28;20226;-70
2022/04/07 12:30:55;;;;;;;5.87;1.30;;;;;;;;;;6154464;28;20230;-68
2022/04/07 12:34:19;;;;;;;2.53;1.50;;;;;;;;;;6150820;28;20238;-73
2022/04/07 12:37:43;;;;;;;5.30;3.13;;;;;;;;;;6130851;28;20238;-72
2022/04/07 12:41:13;;;;;;;2.30;1.00;;;;;;;;;;6155515;28;20502;-71
2022/04/07 12:44:36;;;;;;;1.97;1.00;;;;;;;;;;6165271;28;20375;-72
2022/04/07 12:48:05;;;;;;;2.30;1.23;;;;;;;;;;6162697;28;20298;-71
2022/04/07 12:51:26;;;;;;;1.53;1.10;;;;;;;;;;6166429;28;20230;-71
2022/04/07 12:54:57;;;;;;;1.33;1.20;;;;;;;;;;6163527;28;20230;-71
2022/04/07 12:58:26;;;;;;;3.50;1.27;;;;;;;;;;6165149;28;20772;-72
2022/04/07 13:01:55;;;;;;;5.10;1.40;;;;;;;;;;6163235;28;20225;-73
2022/04/07 13:05:21;;;;;;;3.70;1.20;;;;;;;;;;6166476;28;21399;-72
2022/04/07 13:08:42;;;;;;;1.13;1.03;;;;;;;;;;6163199;28;20238;-73
2022/04/07 13:12:03;;;;;;;2.80;1.40;;;;;;;;;;6163538;28;20319;-72
2022/04/07 13:15:27;;;;;;;5.93;1.70;;;;;;;;;;6161754;28;20341;-72
2022/04/07 13:18:48;;;;;;;4.00;1.67;;;;;;;;;;6166577;28;21637;-74
2022/04/07 13:22:09;;;;;;;2.70;1.73;;;;;;;;;;6161302;28;20589;-73
2022/04/07 13:25:29;;;;;;;6.03;2.30;;;;;;;;;;6164522;28;20278;-73
2022/04/07 13:28:51;;;;;;;3.57;2.27;;;;;;;;;;6153880;28;20233;-73
2022/04/07 13:32:13;;;;;;;6.90;2.37;;;;;;;;;;6159022;28;20358;-74
2022/04/07 13:35:34;;;;;;;4.00;2.47;;;;;;;;;;6174684;28;20246;-74
2022/04/07 13:38:54;;;;;;;3.13;2.83;;;;;;;;;;6164968;28;20651;-74
2022/04/07 13:42:15;;;;;;;2.90;2.00;;;;;;;;;;6167311;28;20227;-74
2022/04/07 13:45:36;;;;;;;4.87;2.23;;;;;;;;;;6164283;28;20230;-75
2022/04/07 13:48:58;;;;;;;3.97;1.90;;;;;;;;;;6167579;28;20227;-73
2022/04/07 13:52:18;;;;;;;2.80;2.27;;;;;;;;;;6145688;28;20242;-72
2022/04/07 13:55:39;;;;;;;3.03;1.73;;;;;;;;;;6150794;28;20334;-73
2022/04/07 13:59:00;;;;;;;3.87;2.03;;;;;;;;;;6154745;28;20234;-73
2022/04/07 14:02:21;;;;;;;4.13;1.77;;;;;;;;;;6158068;28;20234;-72
2022/04/07 14:05:43;;;;;;;4.87;1.53;;;;;;;;;;6157668;28;20243;-72
2022/04/07 14:09:06;;;;;;;2.93;1.53;;;;;;;;;;6158858;28;20251;-72
2022/04/07 14:12:27;;;;;;;3.90;1.70;;;;;;;;;;6149388;28;20520;-71
2022/04/07 14:15:49;;;;;;;2.03;1.50;;;;;;;;;;6150942;28;20239;-74
2022/04/07 14:19:12;;;;;;;2.93;1.50;;;;;;;;;;6159734;28;20238;-72
2022/04/07 14:22:34;;;;;;;4.27;1.87;;;;;;;;;;6141901;28;21374;-70
2022/04/07 14:25:56;;;;;;;4.77;1.77;;;;;;;;;;6150891;28;20520;-71
2022/04/07 14:29:17;;;;;;;5.50;1.30;;;;;;;;;;6153126;28;20250;-68
2022/04/07 14:32:38;;;;;;;1.30;1.03;;;;;;;;;;6156546;28;20253;-69
2022/04/07 14:35:58;;;;;;;2.40;1.43;;;;;;;;;;6148577;28;20259;-70
2022/04/07 14:39:20;;;;;;;2.67;2.07;;;;;;;;;;6137691;28;20246;-70
2022/04/07 14:42:41;;;;;;;4.87;1.83;;;;;;;;;;6152194;28;20242;-70
2022/04/07 14:46:03;;;;;;;3.27;1.90;;;;;;;;;;6142705;28;20260;-73
2022/04/07 14:49:29;;;;;;;4.10;2.10;;;;;;;;;;6145144;28;20249;-73
2022/04/07 14:52:49;;;;;;;5.00;1.50;;;;;;;;;;6144721;28;20246;-73
2022/04/07 14:56:11;;;;;;;6.13;2.17;;;;;;;;;;6144317;28;20474;-74
2022/04/07 14:59:33;;;;;;;2.27;1.70;;;;;;;;;;6136019;28;20238;-73
2022/04/07 15:02:54;;;;;;;2.67;1.47;;;;;;;;;;6148222;28;20235;-74
2022/04/07 15:06:15;;;;;;;1.80;0.70;;;;;;;;;;6143318;28;20238;-73
2022/04/07 15:09:37;;;;;;;0.50;0.50;;;;;;;;;;6140245;28;20266;-72
2022/04/07 15:12:59;;;;;;;2.20;0.90;;;;;;;;;;6145715;28;20226;-72
2022/04/07 15:16:20;;;;;;;2.80;0.90;;;;;;;;;;6146175;28;20644;-72
2022/04/07 15:19:41;;;;;;;1.87;0.90;;;;;;;;;;6145945;28;20231;-74
2022/04/07 15:23:02;;;;;;;2.90;1.60;;;;;;;;;;6145640;28;20298;-74
2022/04/07 15:26:23;;;;;;;2.33;1.00;;;;;;;;;;6145680;28;20242;-75
2022/04/07 15:29:46;;;;;;;2.50;1.07;;;;;;;;;;6154725;28;20227;-73
2022/04/07 15:33:07;;;;;;;0.80;0.73;;;;;;;;;;6154076;28;20325;-73
2022/04/07 15:36:28;;;;;;;1.13;1.03;;;;;;;;;;6144788;28;20218;-73
2022/04/07 15:39:49;;;;;;;1.50;1.03;;;;;;;;;;6156153;28;20235;-72
2022/04/07 15:43:11;;;;;;;5.07;2.17;;;;;;;;;;6152242;28;20222;-73
2022/04/07 15:46:34;;;;;;;4.43;2.20;;;;;;;;;;6149707;28;20230;-72
2022/04/07 15:49:56;;;;;;;1.83;1.40;;;;;;;;;;6153729;28;20961;-71
2022/04/07 15:53:17;;;;;;;4.70;1.73;;;;;;;;;;6156906;28;20250;-72
2022/04/07 15:56:38;;;;;;;2.57;1.43;;;;;;;;;;6155006;28;20239;-72
2022/04/07 15:59:59;;;;;;;3.37;1.47;;;;;;;;;;6155394;28;20234;-73
2022/04/07 16:03:21;;;;;;;3.20;2.23;;;;;;;;;;6150939;28;20227;-73
2022/04/07 16:06:43;;;;;;;4.40;1.70;;;;;;;;;;6147607;28;20551;-73
2022/04/07 16:10:04;;;;;;;3.07;1.87;;;;;;;;;;6148339;28;20317;-72
2022/04/07 16:13:25;;;;;;;2.93;0.93;;;;;;;;;;6154621;28;20235;-73
2022/04/07 16:16:47;;;;;;;1.30;0.90;;;;;;;;;;6149763;28;20258;-74
2022/04/07 16:20:11;;;;;;;2.00;1.33;;;;;;;;;;6147338;28;20751;-74
2022/04/07 16:23:34;;;;;;;2.77;1.10;;;;;;;;;;6147878;28;20238;-73
2022/04/07 16:26:55;;;;;;;2.50;1.10;;;;;;;;;;6145149;28;20220;-72
2022/04/07 16:30:17;;;;;;;3.03;1.43;;;;;;;;;;6149819;28;20241;-72
2022/04/07 16:33:38;;;;;;;1.90;1.33;;;;;;;;;;6143846;28;20230;-72
2022/04/07 16:37:01;;;;;;;2.47;1.43;;;;;;;;;;6142136;28;20226;-73
2022/04/07 16:40:23;;;;;;;1.77;1.20;;;;;;;;;;6148410;28;20333;-71
2022/04/07 16:43:44;;;;;;;2.20;1.67;;;;;;;;;;6153172;28;20235;-71
2022/04/07 16:47:06;;;;;;;1.70;1.17;;;;;;;;;;6154200;28;20226;-72
2022/04/07 16:50:27;;;;;;;3.20;1.20;;;;;;;;;;6147418;28;21681;-72
2022/04/07 16:53:53;;;;;;;2.33;1.30;;;;;;;;;;6139354;28;20313;-72
2022/04/07 16:57:17;;;;;;;3.77;1.63;;;;;;;;;;6140284;28;20628;-74
2022/04/07 17:00:39;;;;;;;3.30;1.70;;;;;;;;;;6130365;28;20258;-72
2022/04/07 17:04:00;;;;;;;2.07;1.57;;;;;;;;;;6146273;28;20525;-71
2022/04/07 17:07:21;;;;;;;1.90;1.20;;;;;;;;;;6143483;28;20322;-72
2022/04/07 17:10:43;;;;;;;2.73;1.03;;;;;;;;;;6130742;28;20334;-72
2022/04/07 17:14:04;;;;;;;2.57;1.27;;;;;;;;;;6134926;28;20233;-72
2022/04/07 17:17:25;;;;;;;2.03;1.57;;;;;;;;;;6142510;28;22142;-73
2022/04/07 17:20:48;;;;;;;3.07;1.57;;;;;;;;;;6143341;28;20326;-73
2022/04/07 17:24:09;;;;;;;3.90;1.70;;;;;;;;;;6148226;28;20234;-73
2022/04/07 17:27:31;;;;;;;2.83;2.13;;;;;;;;;;6141402;28;20265;-73
2022/04/07 17:30:52;;;;;;;2.53;2.07;;;;;;;;;;6148256;28;20314;-74
2022/04/07 17:34:13;;;;;;;1.87;1.60;;;;;;;;;;6143239;28;20227;-74
2022/04/07 17:37:34;;;;;;;1.33;1.23;;;;;;;;;;6145181;28;20326;-74
2022/04/07 17:40:55;;;;;;;4.00;1.90;;;;;;;;;;6146314;28;20302;-73
2022/04/07 17:44:17;;;;;;;3.17;2.13;;;;;;;;;;6146416;28;20230;-73
2022/04/07 17:47:38;;;;;;;4.83;2.67;;;;;;;;;;6150425;28;20253;-73
2022/04/07 17:51:01;;;;;;;5.77;2.63;;;;;;;;;;6136450;28;20231;-74
2022/04/07 17:54:22;;;;;;;5.20;2.47;;;;;;;;;;6147126;28;20298;-73
2022/04/07 17:57:43;;;;;;;2.10;1.80;;;;;;;;;;6149810;28;20235;-74
2022/04/07 18:01:05;;;;;;;3.13;1.93;;;;;;;;;;6149202;28;20242;-73
2022/04/07 18:04:26;;;;;;;3.17;2.10;;;;;;;;;;6146462;28;21093;-74
2022/04/07 18:07:47;;;;;;;8.50;2.90;;;;;;;;;;6147654;28;20231;-69
2022/04/07 18:11:08;;;;;;;3.10;2.80;;;;;;;;;;6146319;28;20231;-71
2022/04/07 18:14:29;;;;;;;4.10;2.07;;;;;;;;;;6145432;28;20580;-68
2022/04/07 18:17:51;;;;;;;6.23;3.27;;;;;;;;;;6150850;28;20227;-68
2022/04/07 18:21:12;;;;;;;7.90;2.50;;;;;;;;;;6149364;28;20333;-69
2022/04/07 18:24:36;;;;;;;6.10;2.00;;;;;;;;;;6145817;28;20647;-69
2022/04/07 18:27:57;;;;;;;8.80;3.13;;;;;;;;;;6158375;28;20227;-69
2022/04/07 18:31:19;;;;;;;3.37;2.33;;;;;;;;;;6150353;28;20701;-74
2022/04/07 18:34:43;;;;;;;8.77;3.07;;;;;;;;;;6140175;28;20342;-69
2022/04/07 18:38:05;;;;;;;8.03;2.33;;;;;;;;;;6141649;28;21047;-69
2022/04/07 18:41:26;;;;;;;6.77;2.13;;;;;;;;;;6151007;28;20321;-69
2022/04/07 18:44:47;;;;;;;7.33;2.37;;;;;;;;;;6148792;28;20235;-70
2022/04/07 18:48:08;;;;;;;5.10;2.23;;;;;;;;;;6137629;28;20223;-69
2022/04/07 18:51:30;;;;;;;6.77;2.67;;;;;;;;;;6143166;28;20621;-69
2022/04/07 18:54:51;;;;;;;5.20;1.63;;;;;;;;;;6144028;28;20222;-69
2022/04/07 18:58:12;;;;;;;2.93;1.30;;;;;;;;;;6143921;28;20223;-70
2022/04/07 19:01:33;;;;;;;2.33;1.50;;;;;;;;;;6149528;28;20239;-68
2022/04/07 19:04:53;;;;;;;5.40;2.57;;;;;;;;;;6148168;28;20649;-70
2022/04/07 19:08:16;;;;;;;5.23;3.27;;;;;;;;;;6156738;28;20606;-70
2022/04/07 19:11:37;;;;;;;3.17;1.97;;;;;;;;;;6153329;28;20227;-69
2022/04/07 19:14:58;;;;;;;3.40;1.77;;;;;;;;;;6140879;28;20708;-69
2022/04/07 19:18:19;;;;;;;5.50;3.37;;;;;;;;;;6142858;28;20662;-70
2022/04/07 19:21:40;;;;;;;9.23;3.03;;;;;;;;;;6133212;28;20238;-70
2022/04/07 19:25:03;;;;;;;8.97;3.17;;;;;;;;;;6142097;28;20235;-68
2022/04/07 19:28:24;;;;;;;7.33;3.27;;;;;;;;;;6134750;28;20243;-68
2022/04/07 19:31:49;;;;;;;6.63;3.47;;;;;;;;;;6135738;28;20235;-69
2022/04/07 19:35:11;;;;;;;6.53;2.60;;;;;;;;;;6133846;28;20242;-69
2022/04/07 19:38:32;;;;;;;3.80;2.03;;;;;;;;;;6145824;28;20864;-69
2022/04/07 19:41:54;;;;;;;9.43;4.03;;;;;;;;;;6123273;28;20234;-70
2022/04/07 19:45:16;;;;;;;3.80;2.60;;;;;;;;;;6141699;28;21062;-68
2022/04/07 19:48:37;;;;;;;5.70;1.90;;;;;;;;;;6143092;28;20223;-72
2022/04/07 19:52:00;;;;;;;4.40;2.27;;;;;;;;;;6143577;28;20227;-69
2022/04/07 19:55:21;;;;;;;4.47;2.30;;;;;;;;;;6133843;28;20230;-69
2022/04/07 19:58:43;;;;;;;3.97;2.90;;;;;;;;;;6149779;28;20317;-69
2022/04/07 20:02:04;;;;;;;6.83;2.23;;;;;;;;;;6143373;28;20231;-69
2022/04/07 20:05:25;;;;;;;4.77;2.17;;;;;;;;;;6145579;28;20254;-70
2022/04/07 20:08:46;;;;;;;7.50;2.77;;;;;;;;;;6154236;28;20223;-70
2022/04/07 20:12:08;;;;;;;5.93;4.03;;;;;;;;;;6153393;28;20345;-69